Time;durP1;ratioP1;P1;durP2;ratioP2;P2;SDS_P1;SDS_P2;PMS_P1;PMS_P2;Temp;Humidity;BMP_temperature;BMP_pressure;BME280_temperature;BME280_humidity;BME280_pressure;Samples;Min_cycle;Max_cycle;Signal;HPM_P1;HPM_P2
2023/01/14 00:01:49;;;;;;;7.53;3.43;;;5.40;99.90;;;6.11;100.00;98329.59;5221345;28;20209;-62
2023/01/14 00:04:24;;;;;;;5.83;3.93;;;5.40;99.90;;;6.04;100.00;98336.72;5220929;28;20308;-62
2023/01/14 00:06:57;;;;;;;10.93;5.23;;;5.40;99.90;;;5.97;100.00;98339.50;5224410;28;20295;-63
2023/01/14 00:09:30;;;;;;;6.90;5.77;;;5.40;99.90;;;5.99;100.00;98332.91;5222990;28;20225;-63
2023/01/14 00:12:03;;;;;;;7.10;4.87;;;5.40;99.90;;;5.96;100.00;98336.84;5221929;28;20292;-63
2023/01/14 00:14:37;;;;;;;5.17;4.37;;;5.40;99.90;;;5.98;100.00;98340.38;5224366;28;20197;-63
2023/01/14 00:17:10;;;;;;;6.77;3.70;;;5.40;99.90;;;6.05;100.00;98342.69;5228742;28;20287;-63
2023/01/14 00:19:44;;;;;;;9.63;3.73;;;5.40;99.90;;;6.18;100.00;98325.16;5224761;28;20328;-63
2023/01/14 00:22:17;;;;;;;5.97;3.03;;;5.50;99.90;;;6.25;100.00;98317.28;5224367;28;20296;-63
2023/01/14 00:24:51;;;;;;;8.83;3.20;;;5.60;99.90;;;6.48;100.00;98320.78;5225185;28;20296;-62
2023/01/14 00:27:24;;;;;;;5.80;3.00;;;5.80;99.90;;;6.63;99.91;98318.56;5225893;28;20259;-63
2023/01/14 00:29:57;;;;;;;7.47;3.77;;;5.90;99.90;;;6.66;98.45;98317.16;5223934;28;20244;-62
2023/01/14 00:32:30;;;;;;;4.80;4.13;;;6.00;99.90;;;6.68;97.60;98315.63;5226287;28;20328;-63
2023/01/14 00:35:05;;;;;;;7.93;3.30;;;6.00;99.90;;;6.66;97.09;98321.34;5221281;28;20259;-63
2023/01/14 00:37:38;;;;;;;3.67;3.37;;;6.20;99.90;;;6.74;97.90;98323.72;5225849;28;20200;-63
2023/01/14 00:40:12;;;;;;;6.10;3.40;;;6.10;99.90;;;6.73;97.01;98324.50;5225477;28;20289;-62
2023/01/14 00:42:45;;;;;;;4.40;2.90;;;6.10;99.90;;;6.69;98.11;98319.94;5222796;28;20280;-63
2023/01/14 00:45:19;;;;;;;6.73;2.93;;;6.10;99.90;;;6.67;97.67;98313.88;5223619;28;20284;-62
2023/01/14 00:47:52;;;;;;;4.73;2.83;;;6.00;99.90;;;6.84;96.47;98324.44;5223319;28;20245;-63
2023/01/14 00:50:26;;;;;;;6.17;3.50;;;6.00;99.90;;;6.90;94.98;98318.22;5221884;28;20249;-63
2023/01/14 00:52:59;;;;;;;6.23;2.83;;;6.20;99.90;;;6.70;96.75;98325.94;5221631;28;20242;-63
2023/01/14 00:55:35;;;;;;;5.90;2.73;;;6.10;99.90;;;6.79;95.59;98323.22;5223356;28;20558;-63
2023/01/14 00:58:08;;;;;;;4.53;3.40;;;6.10;99.90;;;6.76;95.11;98329.81;5223917;28;20255;-63
2023/01/14 01:00:41;;;;;;;6.27;2.90;;;6.10;99.90;;;6.77;94.58;98326.50;5223679;28;20205;-63
2023/01/14 01:03:15;;;;;;;3.57;2.93;;;6.10;99.90;;;6.82;94.06;98333.63;5222744;28;20279;-63
2023/01/14 01:05:51;;;;;;;6.63;3.07;;;6.10;99.90;;;6.79;94.63;98333.38;5222710;28;20284;-62
2023/01/14 01:08:24;;;;;;;5.00;2.80;;;6.00;99.90;;;6.96;92.02;98339.03;5217429;28;20197;-63
2023/01/14 01:10:57;;;;;;;6.27;3.10;;;6.20;99.90;;;6.88;92.04;98340.06;5224117;28;20225;-63
2023/01/14 01:13:31;;;;;;;8.10;3.30;;;6.20;99.90;;;6.79;92.81;98338.47;5221674;28;21994;-63
2023/01/14 01:16:08;;;;;;;4.43;3.00;;;6.10;99.90;;;6.69;93.27;98337.72;5221421;28;20280;-62
2023/01/14 01:18:42;;;;;;;3.77;3.03;;;6.00;99.90;;;6.51;93.91;98351.50;5220844;28;20303;-63
2023/01/14 01:21:17;;;;;;;4.80;2.83;;;6.00;99.90;;;6.43;94.83;98367.75;5221562;28;20643;-63
2023/01/14 01:23:51;;;;;;;6.07;3.00;;;5.90;99.90;;;6.53;94.99;98360.13;5217814;28;20217;-63
2023/01/14 01:26:26;;;;;;;6.30;3.30;;;5.90;99.90;;;6.76;92.58;98357.78;5221910;28;20220;-63
2023/01/14 01:28:59;;;;;;;7.10;3.10;;;6.10;99.90;;;6.72;92.61;98365.00;5221541;28;20197;-63
2023/01/14 01:31:32;;;;;;;6.03;2.83;;;6.10;99.90;;;6.63;93.64;98362.63;5223288;28;20301;-63
2023/01/14 01:34:05;;;;;;;6.33;3.03;;;6.00;99.90;;;6.70;92.37;98362.38;5221602;28;20221;-63
2023/01/14 01:36:40;;;;;;;4.87;2.80;;;6.10;99.90;;;6.67;92.09;98358.69;5222175;28;20193;-63
2023/01/14 01:39:13;;;;;;;5.93;2.57;;;6.10;99.90;;;6.78;92.20;98368.03;5221752;28;20295;-63
2023/01/14 01:41:46;;;;;;;5.63;2.70;;;6.10;99.90;;;6.58;93.35;98369.00;5222609;28;20212;-62
2023/01/14 01:45:15;;;;;;;4.67;2.90;;;6.00;99.90;;;6.64;92.31;98366.97;5219986;28;20235;-63
2023/01/14 01:47:54;;;;;;;6.63;3.17;;;5.90;99.90;;;6.64;92.84;98358.44;5221366;28;20235;-63
2023/01/14 01:50:28;;;;;;;4.97;3.07;;;5.90;99.90;;;6.59;92.88;98354.66;5217766;28;20227;-62
2023/01/14 01:53:04;;;;;;;7.60;3.37;;;5.90;99.90;;;6.31;95.18;98360.03;5223055;28;20308;-61
2023/01/14 01:55:41;;;;;;;3.70;3.17;;;5.70;99.90;;;6.15;95.81;98359.53;5229628;28;20234;-61
2023/01/14 01:58:15;;;;;;;4.43;2.70;;;5.60;99.90;;;6.06;96.92;98357.13;5218907;28;20591;-61
2023/01/14 02:00:48;;;;;;;5.23;3.40;;;5.50;99.90;;;6.07;96.93;98361.47;5222496;28;20657;-62
2023/01/14 02:03:27;;;;;;;3.90;3.00;;;5.40;99.90;;;6.17;96.20;98361.44;5221714;28;20235;-63
2023/01/14 02:06:00;;;;;;;7.83;3.10;;;5.40;99.90;;;6.18;96.34;98360.69;5222532;28;20292;-62
2023/01/14 02:08:38;;;;;;;4.83;3.10;;;5.50;99.90;;;6.27;95.48;98358.03;5221359;28;20679;-63
2023/01/14 02:11:26;;;;;;;4.83;3.23;;;5.50;99.90;;;6.11;96.54;98362.59;5223758;28;20624;-63
2023/01/14 02:14:15;;;;;;;5.57;2.90;;;5.50;99.90;;;6.09;96.61;98360.84;5221348;28;20235;-63
2023/01/14 02:16:59;;;;;;;5.70;3.00;;;5.40;99.90;;;5.95;97.50;98357.91;5220287;28;20237;-63
2023/01/14 02:20:04;;;;;;;8.50;3.57;;;5.30;99.90;;;5.92;97.30;98365.22;5222900;28;20201;-62
2023/01/14 02:23:10;;;;;;;5.67;3.60;;;5.30;99.90;;;5.94;97.24;98362.09;5217517;28;20308;-63
2023/01/14 02:26:57;;;;;;;7.33;3.60;;;5.30;99.90;;;5.99;98.66;98365.00;5219594;28;20232;-63
2023/01/14 02:29:53;;;;;;;7.03;3.60;;;5.30;99.90;;;5.99;98.19;98367.56;5134094;28;20669;-62
2023/01/14 02:32:31;;;;;;;8.77;3.33;;;5.30;99.90;;;6.12;96.32;98355.09;5216023;28;20268;-63
2023/01/14 02:35:17;;;;;;;6.63;3.17;;;5.30;99.90;;;6.04;96.40;98356.13;5223502;28;20247;-63
2023/01/14 02:37:56;;;;;;;3.90;2.90;;;5.30;99.90;;;5.92;97.43;98344.91;5222879;28;20879;-62
2023/01/14 02:40:33;;;;;;;4.40;2.83;;;5.30;99.90;;;5.85;98.40;98354.56;5221518;28;20228;-62
2023/01/14 02:46:11;;;;;;;3.50;3.00;;;5.10;99.90;;;5.80;99.05;98347.34;5221559;28;20233;-63
2023/01/14 02:48:45;;;;;;;5.23;3.17;;;5.10;99.90;;;5.77;98.29;98342.88;5216692;28;20213;-63
2023/01/14 02:51:19;;;;;;;3.80;3.40;;;5.10;99.90;;;5.64;97.63;98350.25;5217453;28;20259;-63
2023/01/14 02:53:52;;;;;;;5.20;3.20;;;5.00;99.90;;;5.60;98.57;98358.34;5218554;28;20220;-63
2023/01/14 02:56:26;;;;;;;4.27;3.27;;;5.00;99.90;;;5.57;98.52;98356.44;5220482;28;20629;-63
2023/01/14 02:59:20;;;;;;;6.63;2.93;;;4.90;99.90;;;5.60;98.76;98366.84;5220179;28;20201;-63
2023/01/14 03:02:16;;;;;;;5.37;3.00;;;5.00;99.90;;;5.62;99.12;98367.88;5221512;28;20314;-63
2023/01/14 03:05:34;;;;;;;5.63;2.77;;;5.00;99.90;;;5.61;98.92;98367.75;5226005;28;20205;-62
2023/01/14 03:08:17;;;;;;;5.63;2.63;;;4.90;99.90;;;5.54;99.18;98373.94;5218119;28;20248;-63
2023/01/14 03:10:57;;;;;;;5.77;2.93;;;4.90;99.90;;;5.53;99.56;98369.63;5222512;28;20620;-63
2023/01/14 03:13:37;;;;;;;7.17;3.57;;;4.80;99.90;;;5.54;98.99;98362.91;5215278;28;20617;-63
2023/01/14 03:16:16;;;;;;;5.03;3.00;;;4.80;99.90;;;5.45;99.07;98364.66;5220719;28;20239;-63
2023/01/14 03:19:00;;;;;;;4.60;3.37;;;4.80;99.90;;;5.39;99.68;98358.31;5219541;28;20349;-62
2023/01/14 03:21:37;;;;;;;6.03;2.80;;;4.60;99.90;;;5.31;99.87;98351.69;5218042;28;20208;-63
2023/01/14 03:24:15;;;;;;;6.07;3.20;;;4.60;99.90;;;5.24;100.00;98353.59;5220064;28;20244;-62
2023/01/14 03:26:49;;;;;;;4.70;3.27;;;4.50;99.90;;;5.17;100.00;98352.16;5221722;28;20201;-63
2023/01/14 03:29:30;;;;;;;3.23;2.93;;;4.40;99.90;;;5.06;100.00;98343.63;5219667;28;20703;-63
2023/01/14 03:32:08;;;;;;;6.73;3.30;;;4.30;99.90;;;4.93;100.00;98343.38;5221331;28;20697;-63
2023/01/14 03:34:49;;;;;;;5.00;3.00;;;4.20;99.90;;;4.88;100.00;98329.41;5224019;28;20654;-63
2023/01/14 03:37:25;;;;;;;4.60;3.00;;;4.20;99.90;;;4.85;100.00;98332.56;5220017;28;20512;-63
2023/01/14 03:40:01;;;;;;;4.93;3.17;;;4.20;99.90;;;4.79;100.00;98334.56;5218696;28;20233;-63
2023/01/14 03:42:40;;;;;;;3.47;3.10;;;4.10;99.90;;;4.77;100.00;98333.53;5217461;28;20722;-62
2023/01/14 03:45:20;;;;;;;4.67;3.30;;;4.10;99.90;;;4.87;100.00;98331.06;5218375;28;20201;-63
2023/01/14 03:47:53;;;;;;;3.70;2.90;;;4.10;99.90;;;4.89;100.00;98329.56;5218165;28;20207;-63
2023/01/14 03:50:35;;;;;;;5.90;3.17;;;4.10;99.90;;;4.82;100.00;98331.41;5225893;28;20676;-63
2023/01/14 03:53:18;;;;;;;4.40;3.10;;;4.10;99.90;;;4.73;100.00;98332.38;5227710;28;20303;-63
2023/01/14 03:56:01;;;;;;;3.17;2.80;;;4.00;99.90;;;4.68;100.00;98330.22;5233418;28;20197;-63
2023/01/14 03:58:44;;;;;;;6.43;2.67;;;4.00;99.90;;;4.54;100.00;98328.13;5225607;28;20202;-63
2023/01/14 04:01:23;;;;;;;4.77;2.83;;;3.80;99.90;;;4.47;100.00;98322.53;5223794;28;20224;-63
2023/01/14 04:03:57;;;;;;;3.60;2.90;;;3.80;99.90;;;4.43;100.00;98320.47;5223396;28;20258;-62
2023/01/14 04:06:32;;;;;;;5.27;3.07;;;3.70;99.90;;;4.36;100.00;98319.81;5222827;28;20192;-63
2023/01/14 04:09:06;;;;;;;3.30;2.97;;;3.70;99.90;;;4.33;100.00;98315.34;5224119;28;20258;-63
2023/01/14 04:11:40;;;;;;;5.20;3.90;;;3.60;99.90;;;4.33;100.00;98322.06;5224908;28;20232;-62
2023/01/14 04:17:04;;;;;;;8.70;3.93;;;3.60;99.90;;;4.09;100.00;98310.63;5223046;28;20216;-63
2023/01/14 04:19:37;;;;;;;4.83;3.10;;;3.40;99.90;;;4.29;100.00;98300.66;5223014;28;20295;-62
2023/01/14 04:22:11;;;;;;;4.03;3.10;;;3.50;99.90;;;4.18;100.00;98296.31;5224574;28;20213;-63
2023/01/14 04:24:44;;;;;;;5.67;3.07;;;3.50;99.90;;;4.20;100.00;98304.91;5224837;28;20664;-63
2023/01/14 04:27:17;;;;;;;5.30;3.23;;;3.50;99.90;;;4.21;100.00;98296.56;5221756;28;20207;-62
2023/01/14 04:29:50;;;;;;;5.87;3.73;;;3.50;99.90;;;4.12;100.00;98290.69;5226723;28;20205;-62
2023/01/14 04:32:24;;;;;;;8.07;3.50;;;3.40;99.90;;;3.97;100.00;98280.09;5223716;28;20308;-62
2023/01/14 04:34:57;;;;;;;5.47;3.50;;;3.30;99.90;;;3.97;100.00;98275.91;5225137;28;20193;-62
2023/01/14 04:37:31;;;;;;;5.07;3.30;;;3.30;99.90;;;3.92;100.00;98272.13;5224429;28;20201;-63
2023/01/14 04:40:06;;;;;;;4.30;3.33;;;3.30;99.90;;;3.93;100.00;98268.81;5225655;28;20193;-62
2023/01/14 04:42:39;;;;;;;5.07;3.80;;;3.30;99.90;;;3.98;100.00;98266.72;5226067;28;20224;-63
2023/01/14 04:45:12;;;;;;;5.27;3.10;;;3.30;99.90;;;3.95;100.00;98264.81;5223068;28;20205;-63
2023/01/14 04:47:45;;;;;;;5.90;3.23;;;3.20;99.90;;;3.93;100.00;98267.94;5225176;28;21966;-62
2023/01/14 04:50:34;;;;;;;5.87;2.97;;;3.20;99.90;;;3.77;100.00;98273.25;5223020;28;20225;-62
2023/01/14 04:53:12;;;;;;;3.87;3.20;;;3.20;99.90;;;3.71;100.00;98267.66;5227012;28;20726;-63
2023/01/14 04:55:46;;;;;;;6.23;3.60;;;3.10;99.90;;;3.74;100.00;98273.88;5232168;28;20209;-63
2023/01/14 04:58:20;;;;;;;7.07;3.20;;;3.20;99.90;;;3.87;100.00;98273.34;5222884;28;20642;-62
2023/01/14 05:00:53;;;;;;;4.47;3.00;;;3.30;99.90;;;3.91;100.00;98282.09;5221631;28;20235;-63
2023/01/14 05:03:26;;;;;;;3.97;3.07;;;3.30;99.90;;;3.86;100.00;98280.78;5225686;28;20227;-61
2023/01/14 05:06:00;;;;;;;4.17;2.83;;;3.20;99.90;;;3.95;100.00;98279.97;5219590;28;20208;-62
2023/01/14 05:08:34;;;;;;;7.97;2.97;;;3.30;99.90;;;4.09;100.00;98280.28;5222952;28;20289;-63
2023/01/14 05:11:07;;;;;;;4.27;2.93;;;3.40;99.90;;;4.04;100.00;98268.13;5222865;28;20256;-63
2023/01/14 05:13:40;;;;;;;5.57;3.23;;;3.40;99.90;;;3.89;100.00;98269.28;5220272;28;20271;-61
2023/01/14 05:16:16;;;;;;;4.60;2.90;;;3.40;99.90;;;4.01;100.00;98261.94;5220725;28;20291;-62
2023/01/14 05:18:49;;;;;;;6.57;3.07;;;3.40;99.90;;;4.18;100.00;98268.47;5222103;28;20208;-63
2023/01/14 05:21:22;;;;;;;3.27;2.83;;;3.40;99.90;;;4.10;100.00;98271.97;5223276;28;20212;-63
2023/01/14 05:23:57;;;;;;;4.60;3.60;;;3.40;99.90;;;4.12;100.00;98266.31;5224174;28;20235;-63
2023/01/14 05:26:30;;;;;;;6.73;3.27;;;3.40;99.90;;;4.07;100.00;98263.34;5221932;28;20284;-62
2023/01/14 05:29:03;;;;;;;4.50;3.17;;;3.40;99.90;;;4.17;100.00;98264.16;5222203;28;20225;-63
2023/01/14 05:35:47;;;;;;;5.33;3.50;;;3.40;99.90;;;3.96;100.00;98253.94;5220153;28;20219;-63
2023/01/14 05:38:20;;;;;;;7.67;3.47;;;3.20;99.90;;;3.89;100.00;98260.81;5221408;28;20211;-63
2023/01/14 05:40:55;;;;;;;5.80;3.00;;;3.10;99.90;;;3.58;100.00;98258.97;5221894;28;20236;-63
2023/01/14 05:46:19;;;;;;;5.87;3.57;;;3.00;99.90;;;3.66;100.00;98261.28;5222621;28;20197;-62
2023/01/14 05:48:52;;;;;;;4.60;3.50;;;3.00;99.90;;;3.80;100.00;98263.41;5221793;28;20277;-60
2023/01/14 05:51:25;;;;;;;6.63;3.90;;;3.10;99.90;;;4.03;100.00;98275.56;5220430;28;20721;-62
2023/01/14 05:53:58;;;;;;;8.20;3.53;;;3.30;99.90;;;4.03;100.00;98281.56;5212661;28;20340;-62
2023/01/14 05:56:32;;;;;;;4.90;2.93;;;3.30;99.90;;;3.94;100.00;98278.19;5219480;28;20333;-62
2023/01/14 05:59:06;;;;;;;4.83;3.80;;;3.30;99.90;;;3.89;100.00;98270.94;5219290;28;20197;-61
2023/01/14 06:07:22;;;;;;;7.40;4.57;;;3.20;99.90;;;3.87;100.00;98248.06;5217955;28;20602;-62
2023/01/14 06:09:55;;;;;;;7.23;4.40;;;3.20;99.90;;;3.92;100.00;98246.84;5218316;28;20217;-61
2023/01/14 06:12:57;;;;;;;7.97;4.33;;;3.30;99.90;;;3.72;100.00;98236.56;5217452;28;20695;-62
2023/01/14 06:15:35;;;;;;;5.90;3.80;;;3.20;99.90;;;3.73;100.00;98238.34;5216374;28;20211;-62
2023/01/14 06:18:14;;;;;;;9.03;4.73;;;3.20;99.90;;;3.84;100.00;98242.72;5220680;28;20287;-62
2023/01/14 06:20:48;;;;;;;5.00;3.93;;;3.30;99.90;;;3.75;100.00;98240.28;5225160;28;20293;-60
2023/01/14 06:23:22;;;;;;;7.90;4.40;;;3.20;99.90;;;3.91;100.00;98239.97;5220629;28;20224;-61
2023/01/14 06:25:55;;;;;;;7.23;3.87;;;3.20;99.90;;;3.88;100.00;98247.28;5220135;28;20204;-60
2023/01/14 06:28:30;;;;;;;5.80;4.40;;;3.20;99.90;;;3.93;100.00;98248.59;5219169;28;20193;-61
2023/01/14 06:31:08;;;;;;;5.17;3.93;;;3.20;99.90;;;3.66;100.00;98246.13;5218409;28;20670;-61
2023/01/14 06:33:42;;;;;;;6.17;3.80;;;3.10;99.90;;;3.45;100.00;98243.44;5220605;28;20236;-60
2023/01/14 06:36:15;;;;;;;5.17;3.43;;;2.90;99.90;;;3.39;100.00;98240.38;5214929;28;20778;-61
2023/01/14 06:38:48;;;;;;;4.60;3.43;;;2.90;99.90;;;3.36;100.00;98242.63;5211268;28;20239;-62
2023/01/14 06:41:21;;;;;;;7.93;5.00;;;2.80;99.90;;;3.39;100.00;98241.25;5213238;28;20198;-62
2023/01/14 06:43:56;;;;;;;5.77;4.70;;;2.80;99.90;;;3.34;100.00;98241.59;5207719;28;20227;-62
2023/01/14 06:46:30;;;;;;;7.93;5.70;;;2.80;99.90;;;3.43;100.00;98232.31;5205053;28;20204;-61
2023/01/14 06:49:03;;;;;;;9.27;5.50;;;2.90;99.90;;;3.48;100.00;98220.09;5205557;28;20200;-60
2023/01/14 06:51:39;;;;;;;12.87;6.00;;;2.90;99.90;;;3.53;100.00;98216.34;5208856;28;20591;-62
2023/01/14 06:54:13;;;;;;;8.07;6.00;;;3.00;99.90;;;3.60;100.00;98211.97;5214700;28;20728;-62
2023/01/14 06:56:46;;;;;;;9.93;6.43;;;3.00;99.90;;;3.56;100.00;98201.47;5222642;28;20218;-62
2023/01/14 06:59:20;;;;;;;9.70;5.97;;;3.00;99.90;;;3.58;100.00;98200.84;5219469;28;20197;-62
2023/01/14 07:01:53;;;;;;;10.60;5.60;;;3.00;99.90;;;3.40;100.00;98206.78;5218679;28;20203;-60
2023/01/14 07:04:27;;;;;;;7.87;5.60;;;2.80;99.90;;;3.51;100.00;98210.28;5217410;28;20320;-62
2023/01/14 07:07:00;;;;;;;6.87;4.20;;;2.80;99.90;;;3.24;100.00;98196.94;5212211;28;20206;-59
2023/01/14 07:09:33;;;;;;;7.67;4.00;;;2.70;99.90;;;3.34;100.00;98201.16;5221799;28;20650;-60
2023/01/14 07:12:07;;;;;;;5.10;4.00;;;2.80;99.90;;;3.41;100.00;98198.47;5219588;28;20315;-58
2023/01/14 07:14:41;;;;;;;5.13;4.17;;;2.90;99.90;;;3.50;100.00;98198.41;5222852;28;20704;-61
2023/01/14 07:17:14;;;;;;;6.73;4.87;;;2.90;99.90;;;3.63;100.00;98205.41;5223038;28;20205;-59
2023/01/14 07:19:47;;;;;;;7.57;5.40;;;3.10;99.90;;;3.77;100.00;98190.72;5218440;28;20210;-60
2023/01/14 07:22:20;;;;;;;4.97;4.10;;;3.20;99.90;;;3.85;100.00;98183.81;5221219;28;20675;-59
2023/01/14 07:24:53;;;;;;;5.07;3.77;;;3.30;99.90;;;3.96;100.00;98188.19;5220420;28;20299;-58
2023/01/14 07:27:27;;;;;;;15.13;10.50;;;3.40;99.90;;;4.14;100.00;98195.59;5222814;28;20693;-60
2023/01/14 07:30:01;;;;;;;48.33;26.53;;;3.40;99.90;;;4.21;100.00;98185.28;5220995;28;20633;-61
2023/01/14 07:32:35;;;;;;;11.60;6.53;;;3.40;99.90;;;3.97;100.00;98189.06;5213852;28;20303;-61
2023/01/14 07:35:09;;;;;;;6.70;4.97;;;3.20;99.90;;;3.75;100.00;98176.16;5227986;28;20202;-61
2023/01/14 07:37:42;;;;;;;5.87;4.93;;;3.10;99.90;;;3.79;100.00;98178.22;5221299;28;20205;-61
2023/01/14 07:40:16;;;;;;;6.57;5.00;;;3.10;99.90;;;3.86;100.00;98172.06;5225314;28;20208;-63
2023/01/14 07:42:54;;;;;;;6.40;4.40;;;3.20;99.90;;;3.78;100.00;98167.25;5218108;28;20227;-63
2023/01/14 07:45:29;;;;;;;4.90;4.40;;;3.20;99.90;;;3.91;100.00;98171.72;5213680;28;20280;-62
2023/01/14 07:48:06;;;;;;;8.57;4.83;;;3.20;99.90;;;3.86;100.00;98175.47;5211809;28;20198;-62
2023/01/14 07:50:39;;;;;;;7.57;4.03;;;3.30;99.90;;;4.00;100.00;98164.03;5217816;28;20704;-62
2023/01/14 07:53:12;;;;;;;5.50;4.03;;;3.40;99.90;;;4.13;100.00;98166.88;5220826;28;20221;-61
2023/01/14 07:55:45;;;;;;;8.53;5.13;;;3.50;99.90;;;4.46;100.00;98150.28;5213673;28;20205;-62
2023/01/14 07:58:18;;;;;;;7.07;5.10;;;3.70;99.90;;;4.40;100.00;98150.66;5222286;28;20228;-61
2023/01/14 08:00:53;;;;;;;6.87;5.77;;;3.70;99.90;;;4.60;100.00;98136.28;5221893;28;20243;-62
2023/01/14 08:03:26;;;;;;;6.63;5.43;;;3.80;99.90;;;4.39;100.00;98133.69;5221113;28;20580;-61
2023/01/14 08:06:02;;;;;;;6.87;5.10;;;3.70;99.90;;;4.27;100.00;98122.53;5220270;28;20205;-61
2023/01/14 08:08:35;;;;;;;6.50;5.80;;;3.60;99.90;;;4.38;100.00;98126.88;5222791;28;20254;-62
2023/01/14 08:11:08;;;;;;;10.13;8.10;;;3.60;99.90;;;4.35;100.00;98113.97;5222924;28;20627;-59
2023/01/14 08:13:41;;;;;;;8.53;6.30;;;3.60;99.90;;;4.40;100.00;98111.81;5221761;28;20697;-61
2023/01/14 08:16:16;;;;;;;7.07;5.90;;;3.70;99.90;;;4.49;100.00;98104.97;5217131;28;20585;-61
2023/01/14 08:18:49;;;;;;;6.57;5.40;;;3.80;99.90;;;4.65;100.00;98089.47;5219944;28;20197;-62
2023/01/14 08:21:22;;;;;;;10.10;7.17;;;4.00;99.90;;;4.87;100.00;98098.06;5217660;28;20325;-62
2023/01/14 08:23:55;;;;;;;8.40;6.17;;;4.10;99.90;;;4.71;100.00;98095.03;5218883;28;20336;-62
2023/01/14 08:26:28;;;;;;;8.57;6.73;;;4.00;99.90;;;4.76;100.00;98091.22;5216749;28;20846;-61
2023/01/14 08:29:02;;;;;;;9.77;8.23;;;4.00;99.90;;;4.78;100.00;98097.31;5214916;28;20296;-62
2023/01/14 08:31:51;;;;;;;10.47;7.20;;;4.00;99.90;;;4.72;100.00;98091.72;5222290;28;20746;-60
2023/01/14 08:34:25;;;;;;;7.10;5.20;;;4.00;99.90;;;4.91;100.00;98084.88;5211539;28;20225;-62
2023/01/14 08:36:58;;;;;;;6.30;4.53;;;4.10;99.90;;;4.78;100.00;98092.25;5220249;28;21104;-63
2023/01/14 08:39:31;;;;;;;6.00;5.43;;;4.10;99.90;;;4.78;100.00;98092.25;5219479;28;20201;-62
2023/01/14 08:42:04;;;;;;;6.53;5.07;;;4.10;99.90;;;4.67;100.00;98088.81;5223642;28;20296;-62
2023/01/14 08:44:38;;;;;;;5.40;4.90;;;4.00;99.90;;;4.82;100.00;98079.06;5220467;28;20602;-61
2023/01/14 08:47:12;;;;;;;5.17;4.67;;;4.10;99.90;;;4.88;100.00;98074.50;5223444;28;20311;-62
2023/01/14 08:49:45;;;;;;;7.60;4.90;;;4.20;99.90;;;5.16;100.00;98079.31;5220791;28;20236;-62
2023/01/14 08:52:19;;;;;;;5.50;4.00;;;4.40;99.90;;;5.49;100.00;98082.78;5218464;28;20221;-62
2023/01/14 08:54:52;;;;;;;8.17;6.00;;;4.70;99.90;;;5.78;100.00;98088.53;5226511;28;20217;-62
2023/01/14 08:57:25;;;;;;;8.90;5.57;;;5.10;99.90;;;5.88;100.00;98075.78;5219013;28;22096;-62
2023/01/14 08:59:58;;;;;;;7.70;5.57;;;5.10;99.90;;;5.76;100.00;98084.97;5224364;28;20572;-63
2023/01/14 09:02:33;;;;;;;10.00;5.40;;;5.00;99.90;;;5.76;100.00;98086.63;5223325;28;20316;-62
2023/01/14 09:05:07;;;;;;;6.10;4.77;;;4.90;99.90;;;5.74;100.00;98073.81;5224959;28;20201;-62
2023/01/14 09:19:07;;;;;;;8.10;5.10;;;5.10;99.90;;;5.93;100.00;98043.22;5224543;28;20220;-62
2023/01/14 09:21:40;;;;;;;8.77;5.00;;;5.30;99.90;;;6.06;100.00;98034.88;5225116;28;20284;-64
2023/01/14 09:24:14;;;;;;;8.00;4.83;;;5.40;99.90;;;6.23;100.00;98034.53;5223515;28;20696;-64
2023/01/14 09:26:47;;;;;;;8.70;4.20;;;5.60;99.90;;;6.50;100.00;98035.75;5222896;28;20592;-63
2023/01/14 09:29:20;;;;;;;10.50;4.03;;;5.90;99.90;;;6.66;100.00;98035.22;5224128;28;20635;-64
2023/01/14 09:31:53;;;;;;;6.40;3.80;;;6.10;99.90;;;6.86;100.00;98035.84;5222534;28;20209;-63
2023/01/14 09:34:27;;;;;;;5.77;3.73;;;6.30;99.90;;;6.99;99.72;98021.63;5225406;28;20278;-63
2023/01/14 09:37:01;;;;;;;8.47;5.77;;;6.30;99.90;;;7.29;98.47;98018.66;5223104;28;20641;-63
2023/01/14 09:39:34;;;;;;;8.57;7.00;;;6.60;99.90;;;7.36;96.18;98014.13;5220927;28;20297;-64
2023/01/14 09:42:14;;;;;;;7.63;6.50;;;6.60;99.90;;;7.23;97.38;98007.25;5219448;28;20292;-63
2023/01/14 09:44:47;;;;;;;10.13;7.60;;;6.50;99.90;;;7.11;97.21;98010.59;5223605;28;20586;-60
2023/01/14 09:47:23;;;;;;;7.83;6.90;;;6.30;99.90;;;7.02;98.16;98008.25;5224095;28;20205;-60
2023/01/14 09:49:58;;;;;;;7.37;6.37;;;6.20;99.90;;;6.96;98.68;98013.78;5223040;28;20205;-59
2023/01/14 09:52:47;;;;;;;7.10;6.43;;;6.10;99.90;;;6.88;99.15;98008.91;5229289;28;20684;-60
2023/01/14 09:55:27;;;;;;;9.30;6.90;;;6.10;99.90;;;6.88;99.74;97997.06;5223826;28;20693;-61
2023/01/14 09:58:05;;;;;;;7.27;6.50;;;6.20;99.90;;;6.97;100.00;97989.25;5229238;28;20271;-61
2023/01/14 10:00:47;;;;;;;7.40;6.63;;;6.20;99.90;;;7.03;99.61;97994.75;5224714;28;20209;-61
2023/01/14 10:03:34;;;;;;;7.03;5.37;;;6.30;99.90;;;7.10;100.00;97993.56;5226852;28;20230;-61
2023/01/14 10:06:13;;;;;;;8.50;6.07;;;6.40;99.90;;;7.19;100.00;97987.47;5215886;28;20201;-61
2023/01/14 10:08:50;;;;;;;19.40;8.43;;;6.50;99.90;;;7.17;100.00;97978.84;5220997;28;20665;-61
2023/01/14 10:11:26;;;;;;;26.60;9.67;;;6.40;99.90;;;7.15;100.00;97985.50;5224089;28;20288;-63
2023/01/14 10:14:07;;;;;;;25.17;8.70;;;6.40;99.90;;;7.13;100.00;97974.34;5224915;28;20320;-63
2023/01/14 10:16:42;;;;;;;51.17;10.53;;;6.40;99.90;;;7.17;100.00;97978.84;5221963;28;20209;-62
2023/01/14 10:19:23;;;;;;;16.30;9.07;;;6.50;99.90;;;7.26;100.00;97967.59;5222505;28;20284;-62
2023/01/14 10:22:06;;;;;;;36.63;12.67;;;6.50;99.90;;;7.25;100.00;97965.81;5209680;28;20206;-62
2023/01/14 10:24:40;;;;;;;45.07;12.53;;;6.40;99.90;;;7.30;100.00;97967.03;5220282;28;20544;-62
2023/01/14 10:27:17;;;;;;;15.27;8.60;;;6.40;99.90;;;7.35;100.00;97952.97;5219213;28;20295;-61
2023/01/14 10:29:50;;;;;;;12.87;7.87;;;6.60;99.90;;;7.42;100.00;97956.06;5215737;28;20193;-61
2023/01/14 10:32:24;;;;;;;8.87;7.60;;;6.60;99.90;;;7.41;100.00;97938.16;5220464;28;20299;-61
2023/01/14 10:34:58;;;;;;;9.50;8.07;;;6.60;99.90;;;7.48;100.00;97930.19;5219475;28;20223;-62
2023/01/14 10:37:32;;;;;;;8.50;7.20;;;6.70;99.90;;;7.62;100.00;97954.06;5219724;28;20208;-61
2023/01/14 10:40:15;;;;;;;9.90;6.60;;;6.80;99.90;;;7.81;100.00;97941.84;5218630;28;20317;-61
2023/01/14 10:42:48;;;;;;;9.17;7.20;;;7.00;99.90;;;7.88;99.34;97940.59;5221601;28;20296;-61
2023/01/14 10:45:22;;;;;;;8.27;6.10;;;7.10;99.90;;;8.00;99.18;97928.69;5220611;28;20293;-61
2023/01/14 10:48:04;;;;;;;6.60;5.90;;;7.20;99.90;;;8.11;98.36;97919.25;5222365;28;20662;-61
2023/01/14 10:50:37;;;;;;;7.67;5.03;;;7.30;99.90;;;8.23;97.80;97911.53;5219072;28;20683;-61
2023/01/14 10:53:23;;;;;;;5.97;4.63;;;7.50;99.90;;;8.39;96.88;97904.19;5219140;28;20213;-61
2023/01/14 10:56:00;;;;;;;5.65;4.10;;;7.60;99.90;;;8.64;92.53;97893.03;5221630;28;21715;-61
2023/01/14 10:58:38;;;;;;;7.28;4.40;;;7.80;99.90;;;8.75;91.20;97858.94;5219358;28;20295;-61
2023/01/14 11:01:13;;;;;;;6.17;5.00;;;7.90;99.90;;;8.99;90.84;97851.97;5219287;28;20239;-60
2023/01/14 11:03:49;;;;;;;5.68;3.88;;;8.10;99.90;;;9.00;89.59;97852.06;5218661;28;20216;-60
2023/01/14 11:06:30;;;;;;;4.90;3.85;;;8.20;99.90;;;8.98;90.11;97853.63;5218905;28;20571;-61
2023/01/14 11:09:05;;;;;;;4.18;3.28;;;8.20;99.90;;;9.10;90.19;97861.19;5217350;28;20223;-59
2023/01/14 11:11:42;;;;;;;3.58;3.15;;;8.40;99.90;;;9.21;91.18;97861.81;5224749;28;20717;-61
2023/01/14 11:14:23;;;;;;;4.43;3.10;;;8.50;99.90;;;9.32;91.45;97854.84;5217047;28;20224;-62
2023/01/14 11:16:56;;;;;;;4.22;2.70;;;8.60;99.90;;;9.42;90.06;97845.31;5223725;28;20288;-62
2023/01/14 11:19:29;;;;;;;3.30;2.60;;;8.60;99.90;;;9.51;90.60;97837.34;5221625;28;20581;-62
2023/01/14 11:22:02;;;;;;;4.75;2.67;;;8.80;99.90;;;9.57;88.53;97834.28;5221260;28;20220;-61
2023/01/14 11:24:40;;;;;;;2.88;2.55;;;8.80;99.90;;;9.63;87.54;97816.78;5225712;28;20197;-62
2023/01/14 11:27:18;;;;;;;4.88;2.60;;;8.90;99.90;;;9.68;86.25;97813.72;5220253;28;20292;-62
2023/01/14 11:29:54;;;;;;;3.20;2.60;;;8.90;99.90;;;9.73;85.85;97796.13;5223670;28;20244;-62
2023/01/14 11:32:33;;;;;;;3.95;2.35;;;8.90;99.90;;;9.73;83.04;97793.56;5219161;28;20254;-62
2023/01/14 11:35:18;;;;;;;3.90;2.42;;;9.00;99.90;;;9.78;84.99;97775.97;5218017;28;20683;-62
2023/01/14 11:37:54;;;;;;;3.33;2.70;;;9.00;99.90;;;9.75;81.58;97780.88;5220883;28;20193;-61